Time;durP1;ratioP1;P1;durP2;ratioP2;P2;SDS_P1;SDS_P2;PMS_P1;PMS_P2;Temp;Humidity;BMP_temperature;BMP_pressure;BME280_temperature;BME280_humidity;BME280_pressure;Samples;Min_cycle;Max_cycle;Signal;HPM_P1;HPM_P2
2022/05/29 00:08:35;;;;;;;;;;;24.20;33.60;;;;;;21081391;28;20273;-60
2022/05/29 00:18:37;;;;;;;;;;;24.10;34.00;;;;;;21125306;27;19984;-60
2022/05/29 00:28:39;;;;;;;;;;;24.10;34.10;;;;;;21148089;28;20006;-61
2022/05/29 00:38:43;;;;;;;;;;;24.10;34.30;;;;;;21164048;28;19923;-61
2022/05/29 00:48:44;;;;;;;;;;;24.00;34.80;;;;;;21163350;28;19924;-61
2022/05/29 00:58:46;;;;;;;;;;;23.90;35.00;;;;;;21163725;28;19993;-60
2022/05/29 01:08:48;;;;;;;;;;;;;;;;;;21163605;28;19977;-59
2022/05/29 01:18:50;;;;;;;;;;;;;;;;;;21161650;28;19930;-60
2022/05/29 01:29:01;;;;;;;;;;;23.60;35.80;;;;;;21175453;28;19927;-60
2022/05/29 01:39:18;;;;;;;;;;;23.40;36.00;;;;;;21176829;28;19934;-63
2022/05/29 01:49:30;;;;;;;;;;;23.40;36.20;;;;;;21176588;28;19935;-59
2022/05/29 01:59:44;;;;;;;;;;;;;;;;;;21175764;28;19924;-59
2022/05/29 02:10:00;;;;;;;;;;;23.40;36.40;;;;;;21174770;28;20108;-59
2022/05/29 02:20:13;;;;;;;;;;;23.00;36.70;;;;;;21157606;28;19936;-59
2022/05/29 02:30:22;;;;;;;;;;;23.00;36.60;;;;;;21174483;28;19955;-59
2022/05/29 02:40:48;;;;;;;;;;;22.80;37.20;;;;;;21171176;28;19930;-59
2022/05/29 02:50:58;;;;;;;;;;;22.50;37.90;;;;;;21171107;28;19963;-60
2022/05/29 03:01:06;;;;;;;;;;;22.30;39.20;;;;;;21153776;28;19927;-59
2022/05/29 03:11:13;;;;;;;;;;;22.00;39.90;;;;;;21169643;28;20018;-59
2022/05/29 03:21:18;;;;;;;;;;;21.70;40.00;;;;;;21168890;28;19928;-60
2022/05/29 03:31:23;;;;;;;;;;;21.60;40.10;;;;;;21168916;28;20410;-57
2022/05/29 03:41:31;;;;;;;;;;;21.40;40.30;;;;;;21166536;28;19924;-58
2022/05/29 03:51:34;;;;;;;;;;;21.20;41.00;;;;;;21166217;28;20050;-59
2022/05/29 04:01:37;;;;;;;;;;;21.30;41.20;;;;;;21165712;28;19928;-60
2022/05/29 04:22:05;;;;;;;;;;;;;;;;;;21163889;28;20009;-60
2022/05/29 04:42:28;;;;;;;;;;;;;;;;;;21162918;28;19935;-59
2022/05/29 04:52:34;;;;;;;;;;;;;;;;;;21162053;28;20245;-59
2022/05/29 05:02:36;;;;;;;;;;;;;;;;;;21175590;28;19927;-59
2022/05/29 05:12:39;;;;;;;;;;;;;;;;;;21179644;28;20024;-58
2022/05/29 05:22:41;;;;;;;;;;;;;;;;;;21178453;28;19924;-58
2022/05/29 05:32:43;;;;;;;;;;;;;;;;;;21178073;28;19924;-57
2022/05/29 05:42:45;;;;;;;;;;;;;;;;;;21177279;28;19935;-60
2022/05/29 05:52:48;;;;;;;;;;;;;;;;;;21176963;28;20386;-60
2022/05/29 06:02:50;;;;;;;;;;;;;;;;;;21175732;28;19924;-60
2022/05/29 06:12:54;;;;;;;;;;;;;;;;;;21174928;28;20348;-60
2022/05/29 06:22:56;;;;;;;;;;;;;;;;;;21173191;28;19927;-60
2022/05/29 06:33:01;;;;;;;;;;;;;;;;;;21156554;28;20368;-60
2022/05/29 06:43:03;;;;;;;;;;;;;;;;;;21171925;28;19982;-58
2022/05/29 06:53:07;;;;;;;;;;;;;;;;;;21172392;28;19931;-60
2022/05/29 07:13:38;;;;;;;;;;;;;;;;;;21170100;28;19924;-59
2022/05/29 07:23:40;;;;;;;;;;;;;;;;;;21168511;28;20393;-58
2022/05/29 07:33:42;;;;;;;;;;;;;;;;;;21168367;28;19931;-61
2022/05/29 07:43:45;;;;;;;;;;;;;;;;;;21167003;28;19924;-59
2022/05/29 07:53:50;;;;;;;;;;;;;;;;;;21167161;28;19962;-59
2022/05/29 08:03:51;;;;;;;;;;;;;;;;;;21167050;28;20045;-60
2022/05/29 08:13:54;;;;;;;;;;;;;;;;;;21164353;28;19931;-60
2022/05/29 08:34:19;;;;;;;;;;;;;;;;;;21162209;28;19924;-59
2022/05/29 08:44:21;;;;;;;;;;;;;;;;;;21163100;28;20330;-62
2022/05/29 08:54:23;;;;;;;;;;;;;;;;;;21161902;28;19982;-60
2022/05/29 09:04:26;;;;;;;;;;;;;;;;;;21161399;28;19928;-61
2022/05/29 09:14:30;;;;;;;;;;;29.20;31.20;;;;;;21161316;28;19932;-63
2022/05/29 09:24:47;;;;;;;;;;;28.70;31.80;;;;;;21161811;28;19924;-62
2022/05/29 09:35:01;;;;;;;;;;;28.70;30.60;;;;;;21160936;28;20324;-61
2022/05/29 09:45:19;;;;;;;;;;;28.50;30.80;;;;;;21166192;28;20006;-62
2022/05/29 09:55:31;;;;;;;;;;;28.60;31.10;;;;;;21176358;28;20010;-62
2022/05/29 10:05:34;;;;;;;;;;;28.40;31.70;;;;;;21175135;28;20007;-61
2022/05/29 10:15:40;;;;;;;;;;;28.50;32.20;;;;;;21173648;28;19935;-60
2022/05/29 10:25:53;;;;;;;;;;;28.70;31.30;;;;;;21173744;28;20376;-60
2022/05/29 10:36:17;;;;;;;;;;;28.70;31.60;;;;;;21154744;28;20003;-62
2022/05/29 10:46:20;;;;;;;;;;;28.80;31.60;;;;;;21171754;28;19977;-60
2022/05/29 10:56:22;;;;;;;;;;;29.10;31.40;;;;;;21170489;28;20382;-61
2022/05/29 11:06:37;;;;;;;;;;;29.40;30.80;;;;;;21169401;28;19931;-61
2022/05/29 11:16:56;;;;;;;;;;;29.70;30.50;;;;;;21170241;27;20341;-60
2022/05/29 11:27:11;;;;;;;;;;;29.70;30.80;;;;;;21168820;28;19924;-61
2022/05/29 11:37:13;;;;;;;;;;;;;;;;;;21167736;28;19931;-59
2022/05/29 11:57:50;;;;;;;;;;;30.10;30.10;;;;;;21166501;28;19924;-61
2022/05/29 12:07:58;;;;;;;;;;;30.10;30.10;;;;;;21166280;28;20326;-60
2022/05/29 12:18:19;;;;;;;;;;;30.70;28.00;;;;;;21165306;28;20283;-60
2022/05/29 12:28:31;;;;;;;;;;;30.40;28.70;;;;;;21145816;28;19949;-61
2022/05/29 12:38:53;;;;;;;;;;;30.50;28.60;;;;;;21163248;28;20090;-61
2022/05/29 12:49:13;;;;;;;;;;;30.70;27.70;;;;;;21163368;28;19960;-61
2022/05/29 12:59:38;;;;;;;;;;;30.90;27.40;;;;;;21163098;28;20390;-62
2022/05/29 13:09:51;;;;;;;;;;;30.70;27.30;;;;;;21163703;28;20002;-60
2022/05/29 13:19:55;;;;;;;;;;;;;;;;;;21173271;28;20359;-62
2022/05/29 13:29:58;;;;;;;;;;;31.00;26.50;;;;;;21178919;28;20358;-60
2022/05/29 13:40:06;;;;;;;;;;;;;;;;;;21178259;28;19930;-60
2022/05/29 13:50:10;;;;;;;;;;;31.30;26.70;;;;;;21177251;28;20431;-62
2022/05/29 14:10:33;;;;;;;;;;;;;;;;;;21175619;28;20357;-61
2022/05/29 14:20:53;;;;;;;;;;;32.60;25.10;;;;;;21174067;28;19924;-62
2022/05/29 14:31:03;;;;;;;;;;;31.80;25.40;;;;;;21171792;28;19924;-62
2022/05/29 14:41:23;;;;;;;;;;;31.80;25.80;;;;;;21172451;28;19924;-61
2022/05/29 14:51:25;;;;;;;;;;;31.80;25.00;;;;;;21171483;28;19924;-62
2022/05/29 15:01:27;;;;;;;;;;;;;;;;;;21170838;28;20426;-60
2022/05/29 15:11:35;;;;;;;;;;;31.90;25.00;;;;;;21170840;28;19927;-60
2022/05/29 15:32:05;;;;;;;;;;;32.00;24.90;;;;;;21169664;28;19931;-62
2022/05/29 15:42:28;;;;;;;;;;;32.20;24.20;;;;;;21169240;28;19923;-61
2022/05/29 15:52:32;;;;;;;;;;;31.70;24.80;;;;;;20808377;28;19964;-62
2022/05/29 16:02:46;;;;;;;;;;;31.50;24.40;;;;;;20824044;28;19931;-60
2022/05/29 16:12:51;;;;;;;;;;;31.20;24.80;;;;;;20822584;28;19925;-60
2022/05/29 16:23:03;;;;;;;;;;;31.00;24.70;;;;;;20939435;28;19967;-61
2022/05/29 16:33:08;;;;;;;;;;;31.00;24.80;;;;;;21078792;28;20557;-60
2022/05/29 16:53:50;;;;;;;;;;;30.70;24.80;;;;;;21078558;28;20002;-63
2022/05/29 17:04:00;;;;;;;;;;;30.70;24.50;;;;;;21073458;28;19924;-61
2022/05/29 17:14:08;;;;;;;;;;;30.50;24.60;;;;;;21082985;28;19971;-63
2022/05/29 17:24:12;;;;;;;;;;;30.20;24.60;;;;;;21161807;28;20291;-62
2022/05/29 17:34:34;;;;;;;;;;;30.00;24.90;;;;;;21162138;28;19924;-62
2022/05/29 17:44:43;;;;;;;;;;;29.80;25.00;;;;;;21160706;28;19997;-62
2022/05/29 17:54:46;;;;;;;;;;;29.80;25.50;;;;;;21161142;28;19924;-62
2022/05/29 18:04:49;;;;;;;;;;;29.70;25.80;;;;;;21164324;28;20053;-62
2022/05/29 18:14:51;;;;;;;;;;;29.40;27.30;;;;;;21177372;28;19931;-64
2022/05/29 18:24:52;;;;;;;;;;;29.20;28.10;;;;;;21177947;28;19931;-61
2022/05/29 18:34:53;;;;;;;;;;;29.00;28.90;;;;;;21175204;28;20383;-62
2022/05/29 18:44:55;;;;;;;;;;;28.80;29.50;;;;;;21172584;28;19924;-62
2022/05/29 18:54:56;;;;;;;;;;;29.20;29.30;;;;;;21171563;28;19934;-63
2022/05/29 19:04:57;;;;;;;;;;;28.30;30.50;;;;;;21171653;28;19931;-62
2022/05/29 19:14:59;;;;;;;;;;;28.10;30.60;;;;;;21169458;28;19924;-62
2022/05/29 19:25:03;;;;;;;;;;;27.90;30.50;;;;;;21173320;28;19924;-62
2022/05/29 19:35:06;;;;;;;;;;;27.70;30.50;;;;;;21170322;28;19924;-62
2022/05/29 19:45:09;;;;;;;;;;;27.40;30.40;;;;;;21167763;28;20280;-63
2022/05/29 19:55:14;;;;;;;;;;;27.20;30.10;;;;;;21167488;28;19931;-62
2022/05/29 20:05:16;;;;;;;;;;;26.90;30.00;;;;;;21167288;28;20291;-63
2022/05/29 20:15:18;;;;;;;;;;;26.70;30.10;;;;;;21166867;28;20372;-63
2022/05/29 20:25:20;;;;;;;;;;;26.60;30.20;;;;;;21165033;28;19967;-63
2022/05/29 20:35:21;;;;;;;;;;;26.30;30.60;;;;;;21166493;28;20276;-63
2022/05/29 20:45:22;;;;;;;;;;;26.10;31.00;;;;;;21168108;28;19924;-62
2022/05/29 20:55:25;;;;;;;;;;;25.90;31.10;;;;;;21165255;28;20311;-60
2022/05/29 21:05:29;;;;;;;;;;;25.80;31.20;;;;;;21163994;28;20272;-63
2022/05/29 21:15:30;;;;;;;;;;;25.60;31.10;;;;;;21163774;28;19931;-62
2022/05/29 21:25:31;;;;;;;;;;;25.50;31.30;;;;;;21162940;28;20372;-63
2022/05/29 21:35:38;;;;;;;;;;;25.30;31.70;;;;;;21163262;28;19923;-64
2022/05/29 21:45:39;;;;;;;;;;;25.20;32.10;;;;;;21175961;28;19924;-63
2022/05/29 21:55:40;;;;;;;;;;;25.00;32.50;;;;;;21175882;28;19923;-63
2022/05/29 22:05:42;;;;;;;;;;;25.00;32.60;;;;;;21175714;28;19923;-62
2022/05/29 22:15:43;;;;;;;;;;;24.80;32.40;;;;;;21175802;28;19977;-63
2022/05/29 22:25:44;;;;;;;;;;;24.70;32.60;;;;;;21174645;28;19930;-61
2022/05/29 22:35:48;;;;;;;;;;;24.60;32.80;;;;;;21173891;28;19923;-63
2022/05/29 22:45:50;;;;;;;;;;;;;;;;;;21172770;28;19967;-61
2022/05/29 22:55:52;;;;;;;;;;;;;;;;;;21171199;28;20504;-61
2022/05/29 23:05:53;;;;;;;;;;;;;;;;;;21173247;28;19923;-62
2022/05/29 23:15:57;;;;;;;;;;;;;;;;;;21172869;28;19931;-62
2022/05/29 23:25:59;;;;;;;;;;;;;;;;;;21172507;28;20283;-61
2022/05/29 23:36:00;;;;;;;;;;;;;;;;;;21152013;28;19924;-62
2022/05/29 23:46:02;;;;;;;;;;;;;;;;;;21169002;28;19924;-60
2022/05/29 23:56:04;;;;;;;;;;;;;;;;;;21167581;28;19930;-61
